Time;durP1;ratioP1;P1;durP2;ratioP2;P2;SDS_P1;SDS_P2;PMS_P1;PMS_P2;Temp;Humidity;BMP_temperature;BMP_pressure;BME280_temperature;BME280_humidity;BME280_pressure;Samples;Min_cycle;Max_cycle;Signal;HPM_P1;HPM_P2
2021/08/25 00:05:31;;;;;;;;;;;;;;;;;;;;;
2021/08/25 00:08:41;;;;;;;1999.90;999.90;;;14.70;99.90;;;;;;5047576;28;20427;-89
2021/08/25 00:15:11;;;;;;;1999.90;999.90;;;14.60;99.90;;;;;;4919708;28;20469;-89
2021/08/25 00:22:01;;;;;;;;;;;;;;;;;;;;;
2021/08/25 00:23:52;;;;;;;1999.90;999.90;;;14.40;99.90;;;;;;5034515;28;20437;-89
2021/08/25 00:30:17;;;;;;;1999.90;999.90;;;14.40;99.90;;;;;;4991280;28;20510;-89
2021/08/25 00:36:22;;;;;;;1999.90;999.90;;;14.30;99.90;;;;;;4956201;28;20408;-89
2021/08/25 00:39:25;;;;;;;1999.90;999.90;;;14.20;99.90;;;;;;4956727;29;20411;-89
2021/08/25 00:42:40;;;;;;;1999.90;999.90;;;14.10;99.90;;;;;;4920809;29;20424;-89
2021/08/25 00:45:32;;;;;;;1999.90;999.90;;;14.10;99.90;;;;;;4901099;29;20453;-89
2021/08/25 00:48:35;;;;;;;1999.90;999.90;;;14.10;99.90;;;;;;4931926;29;20495;-89
2021/08/25 00:51:50;;;;;;;1999.90;999.90;;;14.00;99.90;;;;;;4939804;29;20828;-89
2021/08/25 00:55:04;;;;;;;1999.90;999.90;;;13.90;99.90;;;;;;4972515;28;20462;-89
2021/08/25 01:01:31;;;;;;;1999.90;999.90;;;13.80;99.90;;;;;;4936647;29;20436;-89
2021/08/25 01:04:43;;;;;;;1999.90;999.90;;;13.70;99.90;;;;;;4921832;29;20749;-89
2021/08/25 01:10:50;;;;;;;1999.90;999.90;;;13.60;99.90;;;;;;4880171;29;20515;-89
2021/08/25 01:13:56;;;;;;;1999.90;999.90;;;13.70;99.90;;;;;;4899126;29;20469;-89
2021/08/25 01:17:04;;;;;;;;;;;;;;;;;;;;;
2021/08/25 01:23:31;;;;;;;1999.90;999.90;;;13.60;99.90;;;;;;4994935;28;20392;-89
2021/08/25 01:26:32;;;;;;;1999.90;999.90;;;13.50;99.90;;;;;;4994909;28;20405;-89
2021/08/25 01:29:28;;;;;;;1999.90;999.90;;;13.50;99.90;;;;;;5034929;28;20468;-89
2021/08/25 01:32:00;;;;;;;1999.90;999.90;;;13.40;99.90;;;;;;5055710;28;20410;-89
2021/08/25 01:34:38;;;;;;;1999.90;999.90;;;13.40;99.90;;;;;;5055751;28;20797;-89
2021/08/25 01:37:29;;;;;;;1999.90;999.90;;;13.40;99.90;;;;;;5055776;28;20410;-89
2021/08/25 01:59:29;;;;;;;1999.90;999.90;;;13.20;99.90;;;;;;5115948;22;20577;-88
2021/08/25 02:02:14;;;;;;;1999.90;999.90;;;13.20;99.90;;;;;;5054242;28;20413;-88
2021/08/25 02:08:25;;;;;;;1999.90;999.90;;;13.10;99.90;;;;;;5063050;28;20469;-88
2021/08/25 02:11:24;;;;;;;1999.90;999.90;;;13.00;99.90;;;;;;5055360;28;20407;-88
2021/08/25 02:14:50;;;;;;;;;;;;;;;;;;;;;
2021/08/25 02:17:50;;;;;;;;;;;;;;;;;;;;;
2021/08/25 02:20:37;;;;;;;1999.90;999.90;;;13.00;99.90;;;;;;4977879;28;20411;-88
2021/08/25 02:26:32;;;;;;;1999.90;999.90;;;12.90;99.90;;;;;;5012785;28;20492;-87
2021/08/25 02:32:47;;;;;;;1999.90;999.90;;;12.80;99.90;;;;;;4974247;28;20486;-87
2021/08/25 02:36:34;;;;;;;1999.90;999.90;;;12.80;99.90;;;;;;4953889;28;20468;-87
2021/08/25 02:41:36;;;;;;;1999.90;999.90;;;12.70;99.90;;;;;;4977739;28;20439;-87
2021/08/25 02:44:36;;;;;;;1999.90;999.90;;;12.70;99.90;;;;;;5012653;28;20769;-88
2021/08/25 02:48:35;;;;;;;;;;;;;;;;;;;;;
2021/08/25 02:51:23;;;;;;;1999.90;999.90;;;12.70;99.90;;;;;;5001469;28;20465;-87
2021/08/25 02:58:16;;;;;;;1999.90;999.90;;;12.70;99.90;;;;;;4972877;28;20466;-88
2021/08/25 03:01:07;;;;;;;1999.90;999.90;;;12.60;99.90;;;;;;5033902;28;20422;-87
2021/08/25 03:03:51;;;;;;;1999.90;999.90;;;12.50;99.90;;;;;;5036686;28;20979;-87
2021/08/25 03:06:55;;;;;;;1999.90;999.90;;;12.50;99.90;;;;;;5036602;28;20938;-88
2021/08/25 03:09:48;;;;;;;1999.90;999.90;;;12.50;99.90;;;;;;4955612;28;20415;-88
2021/08/25 03:12:40;;;;;;;1999.90;999.90;;;12.50;99.90;;;;;;5053082;28;20490;-88
2021/08/25 03:16:01;;;;;;;1999.90;999.90;;;12.40;99.90;;;;;;4972380;28;20484;-88
2021/08/25 03:18:53;;;;;;;1999.90;999.90;;;12.40;99.90;;;;;;4971495;28;20986;-87
2021/08/25 03:21:59;;;;;;;1999.90;999.90;;;12.30;99.90;;;;;;4956790;28;20422;-87
2021/08/25 03:24:37;;;;;;;1999.90;999.90;;;12.30;99.90;;;;;;4956175;28;20522;-87
2021/08/25 03:30:43;;;;;;;1999.90;999.90;;;12.20;99.90;;;;;;4945838;28;20407;-88
2021/08/25 03:33:20;;;;;;;1999.90;999.90;;;12.30;99.90;;;;;;4956619;28;20454;-87
2021/08/25 03:36:12;;;;;;;1999.90;999.90;;;12.20;99.90;;;;;;4956309;28;20411;-87
2021/08/25 03:38:41;;;;;;;1999.90;999.90;;;12.30;99.90;;;;;;4915339;28;20446;-88
2021/08/25 03:41:44;;;;;;;1999.90;999.90;;;12.20;99.90;;;;;;5008679;28;20939;-88
2021/08/25 03:48:04;;;;;;;1999.90;999.90;;;12.10;99.90;;;;;;5030921;28;20420;-87
2021/08/25 03:50:57;;;;;;;1999.90;999.90;;;12.10;99.90;;;;;;5011871;28;20482;-87
2021/08/25 03:54:03;;;;;;;1999.90;999.90;;;12.10;99.90;;;;;;5030935;28;20458;-87
2021/08/25 03:56:55;;;;;;;1999.90;999.90;;;12.00;99.90;;;;;;5031144;28;20560;-87
2021/08/25 04:00:49;;;;;;;1999.90;999.90;;;12.10;99.90;;;;;;5006874;28;20519;-88
2021/08/25 04:03:27;;;;;;;1999.90;999.90;;;12.00;99.90;;;;;;5008612;28;20408;-88
2021/08/25 04:17:28;;;;;;;;;;;;;;;;;;;;;
2021/08/25 04:20:34;;;;;;;1999.90;999.90;;;11.80;99.90;;;;;;4845960;29;20960;-87
2021/08/25 04:30:24;;;;;;;1999.90;999.90;;;11.80;99.90;;;;;;4896227;29;20435;-87
2021/08/25 04:43:32;;;;;;;1999.90;999.90;;;11.80;99.90;;;;;;4880103;29;20264;-88
2021/08/25 04:46:38;;;;;;;1999.90;999.90;;;11.80;99.90;;;;;;4879786;29;20634;-88
2021/08/25 04:50:02;;;;;;;;;;;;;;;;;;;;;
2021/08/25 04:53:29;;;;;;;1999.90;999.90;;;11.80;99.90;;;;;;4890919;28;20410;-88
2021/08/25 04:56:51;;;;;;;1999.90;999.90;;;11.80;99.90;;;;;;4914913;29;20204;-88
2021/08/25 05:03:10;;;;;;;;;;;;;;;;;;;;;
2021/08/25 05:30:53;;;;;;;;;;;;;;;;;;;;;
2021/08/25 05:33:52;;;;;;;1999.90;999.90;;;12.30;99.90;;;;;;5052490;28;20430;-88
2021/08/25 05:54:19;;;;;;;;;;;;;;;;;;;;;
2021/08/25 05:57:45;;;;;;;;;;;;;;;;;;;;;
2021/08/25 06:00:16;;;;;;;1999.90;999.90;;;12.90;99.90;;;;;;5037809;22;20592;-83
2021/08/25 06:02:43;;;;;;;1999.90;999.90;;;13.10;99.90;;;;;;5080005;28;20402;-83
2021/08/25 06:05:09;;;;;;;1999.90;999.90;;;13.20;99.90;;;;;;5079907;28;20448;-83
2021/08/25 06:07:35;;;;;;;1999.90;999.90;;;13.30;99.90;;;;;;5051085;28;20494;-83
2021/08/25 06:10:05;;;;;;;1999.90;999.90;;;13.40;99.90;;;;;;5056522;28;20423;-82
2021/08/25 06:12:33;;;;;;;1999.90;999.90;;;13.50;99.90;;;;;;5055617;28;20757;-82
2021/08/25 06:14:59;;;;;;;1999.90;999.90;;;13.60;99.90;;;;;;5055887;28;20450;-82
2021/08/25 06:17:25;;;;;;;1999.90;999.90;;;13.70;99.90;;;;;;5055753;28;20411;-81
2021/08/25 06:19:54;;;;;;;1999.90;999.90;;;13.70;99.90;;;;;;5038356;28;20557;-81
2021/08/25 06:22:20;;;;;;;1999.90;999.90;;;13.90;99.90;;;;;;5058269;28;20902;-83
2021/08/25 06:24:51;;;;;;;1999.90;999.90;;;13.90;99.90;;;;;;5057645;28;20410;-83
2021/08/25 06:27:32;;;;;;;1999.90;999.90;;;14.00;99.90;;;;;;5059049;28;20529;-83
2021/08/25 06:30:01;;;;;;;1999.90;999.90;;;14.00;99.90;;;;;;5039554;28;20410;-83
2021/08/25 06:32:32;;;;;;;1999.90;999.90;;;14.00;99.90;;;;;;5058711;28;20494;-83
2021/08/25 06:35:07;;;;;;;1999.90;999.90;;;14.10;99.90;;;;;;5058837;28;20458;-83
2021/08/25 06:37:32;;;;;;;1999.90;999.90;;;14.30;99.90;;;;;;5040706;28;20941;-83
2021/08/25 06:39:58;;;;;;;1999.90;999.90;;;14.40;99.90;;;;;;5057620;28;20436;-83
2021/08/25 06:42:27;;;;;;;1999.90;999.90;;;14.40;99.90;;;;;;5057703;28;20478;-83
2021/08/25 06:45:00;;;;;;;1999.90;999.90;;;14.50;99.90;;;;;;5058753;28;20185;-83
2021/08/25 06:47:26;;;;;;;1999.90;999.90;;;14.60;99.90;;;;;;5058989;28;20502;-83
2021/08/25 06:49:51;;;;;;;1999.90;999.90;;;14.60;99.90;;;;;;5041474;28;20969;-83
2021/08/25 06:52:17;;;;;;;1999.90;999.90;;;14.70;99.90;;;;;;5057470;28;20213;-83
2021/08/25 06:54:43;;;;;;;1999.90;999.90;;;14.70;99.90;;;;;;5059232;28;20348;-83
2021/08/25 06:57:09;;;;;;;1999.90;999.90;;;14.80;99.90;;;;;;5058978;28;20787;-83
2021/08/25 06:59:34;;;;;;;1999.90;999.90;;;14.80;99.90;;;;;;5058598;28;20176;-83
2021/08/25 07:02:03;;;;;;;1999.90;999.90;;;14.80;99.90;;;;;;5058945;28;20162;-83
2021/08/25 07:04:32;;;;;;;1999.90;999.90;;;14.90;99.90;;;;;;5040282;28;20173;-83
2021/08/25 07:06:58;;;;;;;1999.90;999.90;;;14.90;99.90;;;;;;5058922;28;20452;-83
2021/08/25 07:09:26;;;;;;;1999.90;999.90;;;14.80;99.90;;;;;;5059222;28;20405;-83
2021/08/25 07:11:54;;;;;;;1999.90;999.90;;;14.90;99.90;;;;;;5058873;28;20448;-83
2021/08/25 07:14:23;;;;;;;1999.90;999.90;;;14.90;99.90;;;;;;5057442;28;20452;-83
2021/08/25 07:16:49;;;;;;;1999.90;999.90;;;15.00;99.90;;;;;;5040986;28;20420;-83
2021/08/25 07:19:20;;;;;;;1999.90;999.90;;;15.00;99.90;;;;;;5058334;28;20408;-83
2021/08/25 07:21:49;;;;;;;1999.90;999.90;;;15.00;99.90;;;;;;5057806;28;20202;-83
2021/08/25 07:24:14;;;;;;;1999.90;999.90;;;15.10;99.90;;;;;;5058088;28;20851;-83
2021/08/25 07:26:43;;;;;;;1999.90;999.90;;;15.20;99.90;;;;;;5057833;28;20455;-82
2021/08/25 07:29:09;;;;;;;1999.90;999.90;;;15.20;99.90;;;;;;5058259;28;20220;-83
2021/08/25 07:31:35;;;;;;;1999.90;999.90;;;15.30;99.90;;;;;;5058741;28;20408;-83
2021/08/25 07:34:04;;;;;;;1999.90;999.90;;;15.30;99.90;;;;;;5057839;28;20678;-83
2021/08/25 07:36:30;;;;;;;1999.90;999.90;;;15.30;99.90;;;;;;5064413;23;20178;-82
2021/08/25 07:38:55;;;;;;;1999.90;999.90;;;15.30;99.90;;;;;;5094329;28;20457;-83
2021/08/25 07:41:21;;;;;;;1999.90;999.90;;;15.30;99.90;;;;;;5097975;28;20695;-83
2021/08/25 07:43:46;;;;;;;1999.90;999.90;;;15.30;99.90;;;;;;5098447;28;20255;-83
2021/08/25 07:46:12;;;;;;;1999.90;999.90;;;15.40;99.90;;;;;;5080001;28;20678;-83
2021/08/25 07:48:38;;;;;;;1999.90;999.90;;;15.50;99.90;;;;;;5060672;28;20204;-83
2021/08/25 07:51:08;;;;;;;1999.90;999.90;;;15.50;99.90;;;;;;5076608;28;20173;-83
2021/08/25 07:53:38;;;;;;;1999.90;999.90;;;15.60;99.90;;;;;;5076770;28;20185;-83
2021/08/25 07:56:05;;;;;;;1999.90;999.90;;;15.60;99.90;;;;;;5059779;28;20409;-83
2021/08/25 07:58:30;;;;;;;1999.90;999.90;;;15.70;99.90;;;;;;5059645;28;20424;-82
2021/08/25 08:00:56;;;;;;;1999.90;999.90;;;15.70;99.90;;;;;;5077893;28;20927;-82
2021/08/25 08:03:22;;;;;;;1999.90;999.90;;;15.80;99.90;;;;;;5078006;28;20643;-82
2021/08/25 08:05:48;;;;;;;1999.90;999.90;;;15.90;99.90;;;;;;5077316;28;20544;-82
2021/08/25 08:08:14;;;;;;;1999.90;999.90;;;16.00;99.90;;;;;;5077174;28;20189;-82
2021/08/25 08:10:40;;;;;;;1999.90;999.90;;;16.00;99.90;;;;;;5077172;28;20401;-82
2021/08/25 08:13:06;;;;;;;1999.90;999.90;;;16.00;99.90;;;;;;5076840;28;20420;-82
2021/08/25 08:15:33;;;;;;;1999.90;999.90;;;16.10;99.90;;;;;;5077250;28;20954;-82
2021/08/25 08:18:07;;;;;;;1999.90;999.90;;;16.10;99.90;;;;;;5076736;28;20273;-82
2021/08/25 08:20:32;;;;;;;1999.90;999.90;;;16.10;99.90;;;;;;5076936;28;20441;-82
2021/08/25 08:22:58;;;;;;;1999.90;999.90;;;16.10;99.90;;;;;;5076699;28;20392;-82
2021/08/25 08:25:24;;;;;;;1999.90;999.90;;;16.20;99.90;;;;;;5058885;28;20172;-82
2021/08/25 08:27:49;;;;;;;1999.90;999.90;;;16.30;99.90;;;;;;5077087;28;20195;-82
2021/08/25 08:30:15;;;;;;;1999.90;999.90;;;16.30;99.90;;;;;;5076879;28;20666;-82
2021/08/25 08:32:41;;;;;;;1999.90;999.90;;;16.40;99.90;;;;;;5075296;28;20175;-82
2021/08/25 08:35:07;;;;;;;1999.90;999.90;;;16.50;99.90;;;;;;5077799;28;20213;-82
2021/08/25 08:37:33;;;;;;;1999.90;999.90;;;16.50;99.90;;;;;;5076734;28;20231;-82
2021/08/25 08:39:59;;;;;;;1999.90;999.90;;;16.60;99.90;;;;;;5077507;28;20462;-82
2021/08/25 08:42:29;;;;;;;1999.90;999.90;;;16.70;99.90;;;;;;5059302;28;20599;-82
2021/08/25 08:44:56;;;;;;;1999.90;999.90;;;16.70;99.90;;;;;;5077159;28;20151;-82
2021/08/25 08:47:24;;;;;;;1999.90;999.90;;;16.80;99.90;;;;;;5076867;28;20424;-82
2021/08/25 08:49:52;;;;;;;1999.90;999.90;;;16.80;99.90;;;;;;5077018;28;20398;-83
2021/08/25 08:52:19;;;;;;;1999.90;999.90;;;16.90;99.90;;;;;;5077599;28;20413;-82
2021/08/25 08:54:45;;;;;;;1999.90;999.90;;;17.00;99.90;;;;;;5079399;28;20499;-82
2021/08/25 08:57:11;;;;;;;1999.90;999.90;;;17.10;99.90;;;;;;5081387;28;20422;-82
2021/08/25 08:59:37;;;;;;;1999.90;999.90;;;17.30;99.90;;;;;;5063045;28;20445;-82
2021/08/25 09:02:03;;;;;;;1999.90;999.90;;;17.30;1.00;;;;;;5080310;28;20174;-82
2021/08/25 09:04:33;;;;;;;1999.90;999.90;;;17.40;1.00;;;;;;5081471;28;20255;-82
2021/08/25 09:06:59;;;;;;;1999.90;999.90;;;17.50;1.00;;;;;;5081214;28;20497;-82
2021/08/25 09:09:25;;;;;;;1999.90;999.90;;;17.50;1.00;;;;;;5080999;28;20430;-82
2021/08/25 09:11:52;;;;;;;1999.90;999.90;;;17.50;1.00;;;;;;5080934;28;20179;-82
2021/08/25 09:14:19;;;;;;;1999.90;999.90;;;17.60;1.00;;;;;;5062966;28;20453;-82
2021/08/25 09:16:45;;;;;;;1999.90;999.90;;;17.70;1.00;;;;;;5080536;28;20418;-82
2021/08/25 09:19:14;;;;;;;1999.90;999.90;;;17.80;1.00;;;;;;5062925;28;20904;-82
2021/08/25 09:21:52;;;;;;;1999.90;999.90;;;17.90;1.00;;;;;;5080514;28;20394;-82
2021/08/25 09:24:23;;;;;;;1999.90;999.90;;;18.10;1.00;;;;;;5062870;28;20837;-82
2021/08/25 09:27:09;;;;;;;1999.90;999.90;;;18.20;1.00;;;;;;5080829;28;20438;-82
2021/08/25 09:29:37;;;;;;;1999.90;999.90;;;18.30;99.90;;;;;;5062919;28;20414;-83
2021/08/25 09:32:15;;;;;;;1999.90;999.90;;;18.40;99.90;;;;;;5080947;28;20402;-83
2021/08/25 09:34:40;;;;;;;1999.90;999.90;;;18.40;99.90;;;;;;5062095;28;20489;-83
2021/08/25 09:37:17;;;;;;;1999.90;999.90;;;18.50;99.90;;;;;;5063065;28;20453;-82
2021/08/25 09:39:52;;;;;;;1999.90;999.90;;;18.60;99.90;;;;;;5079494;28;20657;-83
2021/08/25 09:42:20;;;;;;;1999.90;999.90;;;18.80;99.90;;;;;;5062639;28;20481;-82
2021/08/25 09:44:59;;;;;;;1999.90;999.90;;;19.00;99.90;;;;;;5080003;28;20407;-82
2021/08/25 09:47:47;;;;;;;1999.90;999.90;;;19.10;99.90;;;;;;5062288;28;20434;-82
2021/08/25 09:50:16;;;;;;;1999.90;999.90;;;19.30;99.90;;;;;;5080105;28;20386;-82
2021/08/25 09:52:44;;;;;;;1999.90;999.90;;;19.50;99.90;;;;;;5078915;28;20513;-82
2021/08/25 09:55:11;;;;;;;1999.90;999.90;;;19.60;99.90;;;;;;5060941;28;20445;-82
2021/08/25 09:57:38;;;;;;;1999.90;999.90;;;19.80;99.90;;;;;;5079761;28;20418;-82
2021/08/25 10:00:06;;;;;;;1999.90;999.90;;;20.00;99.90;;;;;;5079151;28;20399;-83
2021/08/25 10:02:32;;;;;;;1999.90;999.90;;;20.00;99.90;;;;;;5079548;28;20403;-82
2021/08/25 10:04:57;;;;;;;1999.90;999.90;;;20.10;99.90;;;;;;5059829;28;20407;-82
2021/08/25 10:07:23;;;;;;;1999.90;999.90;;;20.30;99.90;;;;;;5078477;28;20462;-82
2021/08/25 10:09:49;;;;;;;1999.90;999.90;;;20.50;99.90;;;;;;5061074;28;20187;-83
2021/08/25 10:12:15;;;;;;;1999.90;999.90;;;20.70;99.90;;;;;;5078943;28;20404;-83
2021/08/25 10:14:41;;;;;;;1999.90;999.90;;;20.80;99.90;;;;;;5078897;28;20443;-82
2021/08/25 10:17:07;;;;;;;1999.90;999.90;;;20.90;99.90;;;;;;5060739;28;20449;-82
2021/08/25 10:19:38;;;;;;;1999.90;999.90;;;21.10;99.90;;;;;;5078845;28;20176;-82
2021/08/25 10:22:10;;;;;;;1999.90;999.90;;;21.30;99.90;;;;;;5060708;28;20170;-82
2021/08/25 10:25:01;;;;;;;1999.90;999.90;;;21.50;99.90;;;;;;5078036;28;20403;-82
2021/08/25 10:33:39;;;;;;;1999.90;999.90;;;21.50;99.90;;;;;;4995767;28;20424;-82
2021/08/25 10:36:52;;;;;;;;;;;;;;;;;;;;;
2021/08/25 10:39:53;;;;;;;;;;;;;;;;;;;;;
2021/08/25 10:49:52;;;;;;;1999.90;999.90;;;21.70;99.90;;;;;;4920422;29;20409;-83
2021/08/25 10:52:46;;;;;;;1999.90;999.90;;;22.00;99.90;;;;;;4996793;28;20540;-82
2021/08/25 10:56:01;;;;;;;1999.90;999.90;;;22.40;99.90;;;;;;4999136;28;20449;-83
2021/08/25 11:01:54;;;;;;;1999.90;999.90;;;22.90;99.90;;;;;;4998496;28;20401;-83
2021/08/25 11:05:09;;;;;;;1999.90;999.90;;;23.10;99.90;;;;;;4981469;28;20414;-82
2021/08/25 11:08:33;;;;;;;1999.90;999.90;;;23.40;99.90;;;;;;4998822;28;20478;-82
2021/08/25 11:11:37;;;;;;;1999.90;999.90;;;23.40;99.90;;;;;;4976541;28;20418;-82
2021/08/25 11:14:49;;;;;;;;;;;;;;;;;;;;;
2021/08/25 11:17:32;;;;;;;1999.90;999.90;;;24.00;99.90;;;;;;4998146;28;20520;-83
2021/08/25 11:20:16;;;;;;;1999.90;999.90;;;23.90;99.90;;;;;;4981532;28;20410;-82
2021/08/25 11:25:57;;;;;;;1999.90;999.90;;;24.30;99.90;;;;;;4998739;28;20924;-83
2021/08/25 11:29:16;;;;;;;1999.90;999.90;;;24.50;99.90;;;;;;4998837;28;20430;-83
2021/08/25 11:35:47;;;;;;;1999.90;999.90;;;24.40;99.90;;;;;;4881279;29;20475;-83
2021/08/25 11:41:56;;;;;;;1999.90;999.90;;;24.30;99.90;;;;;;4986644;28;20516;-83
2021/08/25 11:44:54;;;;;;;1999.90;999.90;;;24.40;99.90;;;;;;4965244;28;20759;-83
2021/08/25 11:51:41;;;;;;;1999.90;999.90;;;24.60;99.90;;;;;;4998376;28;20806;-83
2021/08/25 12:00:59;;;;;;;1999.90;999.90;;;24.60;99.90;;;;;;5163571;23;20850;-80
2021/08/25 12:03:49;;;;;;;1999.90;999.90;;;25.00;99.90;;;;;;5074008;28;20812;-80
2021/08/25 12:06:41;;;;;;;1999.90;999.90;;;25.10;99.90;;;;;;5073599;28;20809;-79
2021/08/25 12:09:44;;;;;;;1999.90;999.90;;;25.20;99.90;;;;;;5046852;28;20434;-80
2021/08/25 12:12:11;;;;;;;1999.90;999.90;;;25.10;99.90;;;;;;5053510;28;20838;-80
2021/08/25 12:14:53;;;;;;;1999.90;999.90;;;25.30;99.90;;;;;;5053209;28;20803;-80
2021/08/25 12:17:20;;;;;;;1999.90;999.90;;;25.10;99.90;;;;;;5052347;28;20478;-79
2021/08/25 12:20:39;;;;;;;1999.90;999.90;;;25.00;99.90;;;;;;5052394;28;20434;-79
2021/08/25 12:23:07;;;;;;;1999.90;999.90;;;24.70;99.90;;;;;;5011958;28;20413;-80
2021/08/25 12:25:51;;;;;;;1999.90;999.90;;;24.70;99.90;;;;;;5035590;28;20474;-79
2021/08/25 12:28:36;;;;;;;1999.90;999.90;;;25.00;99.90;;;;;;5052155;28;20424;-79
2021/08/25 12:34:35;;;;;;;1999.90;999.90;;;25.20;99.90;;;;;;5036451;28;20533;-79
2021/08/25 12:37:03;;;;;;;1999.90;999.90;;;24.90;99.90;;;;;;5057293;28;20413;-79
2021/08/25 12:39:52;;;;;;;1999.90;999.90;;;24.80;99.90;;;;;;5057467;28;20396;-79
2021/08/25 12:42:34;;;;;;;1999.90;999.90;;;24.80;99.90;;;;;;5057741;28;20933;-79
2021/08/25 12:45:00;;;;;;;1999.90;999.90;;;24.60;99.90;;;;;;5057865;28;20391;-79
2021/08/25 12:47:25;;;;;;;1999.90;999.90;;;24.70;99.90;;;;;;5057088;28;20424;-79
2021/08/25 12:49:51;;;;;;;1999.90;999.90;;;24.90;99.90;;;;;;5039219;28;20617;-79
2021/08/25 12:52:27;;;;;;;1999.90;999.90;;;25.10;99.90;;;;;;5057011;28;20167;-80
2021/08/25 12:55:15;;;;;;;1999.90;999.90;;;25.00;99.90;;;;;;5057039;28;20195;-79
2021/08/25 12:57:53;;;;;;;1999.90;999.90;;;25.00;99.90;;;;;;5055481;28;20437;-79
2021/08/25 13:00:21;;;;;;;1999.90;999.90;;;25.00;99.90;;;;;;5056930;28;20876;-79
2021/08/25 13:03:10;;;;;;;1999.90;999.90;;;25.10;99.90;;;;;;5034038;28;20464;-79
2021/08/25 13:05:44;;;;;;;1999.90;999.90;;;25.10;99.90;;;;;;5020573;28;20428;-79
2021/08/25 13:08:25;;;;;;;1999.90;999.90;;;25.10;99.90;;;;;;5057148;28;20420;-80
2021/08/25 13:10:51;;;;;;;1999.90;999.90;;;25.10;99.90;;;;;;5056807;28;20484;-79
2021/08/25 13:13:26;;;;;;;1999.90;999.90;;;25.00;99.90;;;;;;5038661;28;20527;-81
2021/08/25 13:15:54;;;;;;;1999.90;999.90;;;25.10;99.90;;;;;;5057087;28;20417;-79
2021/08/25 13:18:29;;;;;;;1999.90;999.90;;;25.00;99.90;;;;;;5040484;28;20429;-79
2021/08/25 13:21:02;;;;;;;1999.90;999.90;;;25.10;99.90;;;;;;5056925;28;20416;-79
2021/08/25 13:23:28;;;;;;;1999.90;999.90;;;24.90;99.90;;;;;;5038815;28;20990;-79
2021/08/25 13:25:54;;;;;;;1999.90;999.90;;;25.00;99.90;;;;;;5056725;28;20406;-80
2021/08/25 13:28:25;;;;;;;1999.90;999.90;;;25.00;99.90;;;;;;5056712;28;20620;-80
2021/08/25 13:30:53;;;;;;;1999.90;999.90;;;25.20;99.90;;;;;;5056476;28;20215;-80
2021/08/25 13:33:35;;;;;;;1999.90;999.90;;;25.40;99.90;;;;;;5056371;28;20451;-79
2021/08/25 13:36:04;;;;;;;1999.90;999.90;;;25.30;99.90;;;;;;5056407;28;20414;-79
2021/08/25 13:38:29;;;;;;;1999.90;999.90;;;25.20;99.90;;;;;;5056147;28;20468;-79
2021/08/25 13:41:10;;;;;;;1999.90;999.90;;;25.30;99.90;;;;;;5038011;28;20424;-79
2021/08/25 13:43:36;;;;;;;1999.90;999.90;;;25.30;99.90;;;;;;5037791;28;20181;-80
2021/08/25 13:46:07;;;;;;;1999.90;999.90;;;25.50;99.90;;;;;;5056064;28;20405;-80
2021/08/25 13:48:33;;;;;;;1999.90;999.90;;;25.20;99.90;;;;;;5055704;28;20244;-79
2021/08/25 13:51:05;;;;;;;1999.90;999.90;;;25.20;99.90;;;;;;5056022;28;20410;-80
2021/08/25 13:53:33;;;;;;;1999.90;999.90;;;25.20;99.90;;;;;;5054773;28;20171;-80
2021/08/25 13:55:58;;;;;;;1999.90;999.90;;;25.20;99.90;;;;;;5055615;28;20414;-80
2021/08/25 13:58:35;;;;;;;1999.90;999.90;;;25.40;99.90;;;;;;5055626;28;20417;-79
2021/08/25 14:01:06;;;;;;;1999.90;999.90;;;25.60;99.90;;;;;;5038005;28;20187;-79
2021/08/25 14:03:41;;;;;;;1999.90;999.90;;;25.40;99.90;;;;;;5038314;28;20509;-79
2021/08/25 14:06:07;;;;;;;1999.90;999.90;;;25.50;99.90;;;;;;5037695;28;20425;-79
2021/08/25 14:08:45;;;;;;;1999.90;999.90;;;25.20;99.90;;;;;;5055504;28;20425;-79
2021/08/25 14:11:43;;;;;;;1999.90;999.90;;;25.20;99.90;;;;;;5037832;28;20180;-80
2021/08/25 14:14:12;;;;;;;1999.90;999.90;;;25.00;99.90;;;;;;5055522;28;20956;-80
2021/08/25 14:16:51;;;;;;;1999.90;999.90;;;24.90;99.90;;;;;;5055206;28;20407;-79
2021/08/25 14:19:35;;;;;;;1999.90;999.90;;;25.00;99.90;;;;;;5036582;28;20794;-79
2021/08/25 14:22:02;;;;;;;1999.90;999.90;;;25.10;99.90;;;;;;5055205;28;20464;-79
2021/08/25 14:24:36;;;;;;;1999.90;999.90;;;25.00;99.90;;;;;;5037445;28;20951;-79
2021/08/25 14:27:05;;;;;;;1999.90;999.90;;;25.00;99.90;;;;;;5055481;28;20421;-80
2021/08/25 14:29:48;;;;;;;1999.90;999.90;;;24.90;99.90;;;;;;5055080;28;20411;-79
2021/08/25 14:32:14;;;;;;;1999.90;999.90;;;24.70;99.90;;;;;;5055274;28;20411;-79
2021/08/25 14:34:45;;;;;;;1999.90;999.90;;;24.70;99.90;;;;;;5037509;28;20480;-79
2021/08/25 14:37:20;;;;;;;1999.90;999.90;;;24.90;99.90;;;;;;5037069;28;20243;-80
2021/08/25 14:39:46;;;;;;;1999.90;999.90;;;25.00;99.90;;;;;;5055171;28;20387;-79
2021/08/25 14:42:17;;;;;;;1999.90;999.90;;;25.10;99.90;;;;;;5055221;28;20831;-79
2021/08/25 14:44:43;;;;;;;1999.90;999.90;;;25.00;99.90;;;;;;5037031;28;20608;-79
2021/08/25 14:47:21;;;;;;;1999.90;999.90;;;25.10;99.90;;;;;;5037179;28;20431;-79
2021/08/25 14:50:10;;;;;;;1999.90;999.90;;;25.20;99.90;;;;;;5054891;28;20198;-79
2021/08/25 14:52:53;;;;;;;1999.90;999.90;;;25.20;99.90;;;;;;5054436;28;20412;-80
2021/08/25 14:55:26;;;;;;;1999.90;999.90;;;25.10;99.90;;;;;;5055375;28;20444;-79
2021/08/25 14:57:59;;;;;;;1999.90;999.90;;;25.20;99.90;;;;;;5054911;28;20986;-79
2021/08/25 15:00:39;;;;;;;1999.90;999.90;;;25.10;99.90;;;;;;5054864;28;20425;-79
2021/08/25 15:03:08;;;;;;;1999.90;999.90;;;25.30;99.90;;;;;;5055146;28;20410;-79
2021/08/25 15:05:52;;;;;;;1999.90;999.90;;;25.10;99.90;;;;;;5054839;28;20450;-80
2021/08/25 15:09:19;;;;;;;1999.90;999.90;;;25.00;99.90;;;;;;5037238;28;20436;-79
2021/08/25 15:11:30;;;;;;;1999.90;999.90;;;24.90;99.90;;;;;;5044116;28;20941;-79
2021/08/25 15:14:03;;;;;;;1999.90;999.90;;;24.70;99.90;;;;;;5054385;28;20439;-79
2021/08/25 15:16:32;;;;;;;1999.90;999.90;;;24.70;99.90;;;;;;5054702;28;20374;-79
2021/08/25 15:19:11;;;;;;;1999.90;999.90;;;24.80;99.90;;;;;;5054913;28;20463;-79
2021/08/25 15:21:37;;;;;;;1999.90;999.90;;;24.90;99.90;;;;;;5054502;28;21117;-79
2021/08/25 15:24:05;;;;;;;1999.90;999.90;;;24.90;99.90;;;;;;5054815;28;20413;-79
2021/08/25 15:26:33;;;;;;;1999.90;999.90;;;25.10;99.90;;;;;;5054454;28;20174;-79
2021/08/25 15:29:04;;;;;;;1999.90;999.90;;;25.20;99.90;;;;;;5054568;28;20791;-79
2021/08/25 15:31:35;;;;;;;1999.90;999.90;;;25.30;99.90;;;;;;5054293;28;20394;-79
2021/08/25 15:34:19;;;;;;;1999.90;999.90;;;25.30;99.90;;;;;;5053993;28;20975;-79
2021/08/25 15:36:54;;;;;;;1999.90;999.90;;;25.40;99.90;;;;;;5035790;28;20517;-79
2021/08/25 15:39:23;;;;;;;1999.90;999.90;;;25.60;99.90;;;;;;5054224;28;20915;-79
2021/08/25 15:41:56;;;;;;;1999.90;999.90;;;25.70;99.90;;;;;;5036225;28;20409;-80
2021/08/25 15:44:24;;;;;;;1999.90;999.90;;;25.70;99.90;;;;;;5053965;28;20511;-79
2021/08/25 15:46:58;;;;;;;1999.90;999.90;;;25.70;99.90;;;;;;5036622;28;20440;-80
2021/08/25 15:49:31;;;;;;;1999.90;999.90;;;25.90;99.90;;;;;;5054065;28;20917;-79
2021/08/25 15:52:10;;;;;;;1999.90;999.90;;;26.10;99.90;;;;;;5034217;28;20502;-81
2021/08/25 15:54:52;;;;;;;1999.90;999.90;;;26.10;99.90;;;;;;5052960;28;20476;-79
2021/08/25 15:57:24;;;;;;;1999.90;999.90;;;26.50;99.90;;;;;;5043799;28;20423;-79
2021/08/25 16:00:11;;;;;;;1999.90;999.90;;;26.40;99.90;;;;;;5036752;28;20576;-80
2021/08/25 16:02:40;;;;;;;1999.90;999.90;;;25.80;99.90;;;;;;5035828;28;20449;-79
2021/08/25 16:05:24;;;;;;;1999.90;999.90;;;25.50;99.90;;;;;;5053678;28;20411;-79
2021/08/25 16:08:02;;;;;;;1999.90;999.90;;;25.40;99.90;;;;;;5052265;28;21002;-79
2021/08/25 16:10:36;;;;;;;1999.90;999.90;;;25.70;99.90;;;;;;5054097;28;20389;-78
2021/08/25 16:13:23;;;;;;;1999.90;999.90;;;25.90;99.90;;;;;;5035912;28;20778;-80
2021/08/25 16:15:52;;;;;;;1999.90;999.90;;;26.00;99.90;;;;;;5053610;28;20446;-79
2021/08/25 16:18:28;;;;;;;1999.90;999.90;;;25.80;99.90;;;;;;5053508;28;20501;-79
2021/08/25 16:21:12;;;;;;;1999.90;999.90;;;25.40;99.90;;;;;;5051381;28;20563;-80
2021/08/25 16:23:41;;;;;;;1999.90;999.90;;;25.00;99.90;;;;;;5052697;28;20429;-79
2021/08/25 16:29:21;;;;;;;1999.90;999.90;;;24.90;99.90;;;;;;5034283;28;20417;-79